Time;durP1;ratioP1;P1;durP2;ratioP2;P2;SDS_P1;SDS_P2;PMS_P1;PMS_P2;Temp;Humidity;BMP_temperature;BMP_pressure;BME280_temperature;BME280_humidity;BME280_pressure;Samples;Min_cycle;Max_cycle;Signal;HPM_P1;HPM_P2
2022/03/01 00:00:21;;;;;;;34.35;18.27;;;13.80;99.90;;;;;;5043063;22;112914;-68
2022/03/01 00:02:47;;;;;;;31.90;18.55;;;13.80;99.90;;;;;;4984779;28;112575;-68
2022/03/01 00:05:14;;;;;;;35.28;18.50;;;13.80;99.90;;;;;;4989402;28;113640;-68
2022/03/01 00:07:39;;;;;;;44.15;20.88;;;13.80;99.90;;;;;;5003124;28;112805;-66
2022/03/01 00:10:06;;;;;;;36.30;17.55;;;13.80;99.90;;;;;;5005521;28;113040;-67
2022/03/01 00:12:32;;;;;;;44.78;25.40;;;13.70;99.90;;;;;;5006732;28;112894;-67
2022/03/01 00:14:57;;;;;;;33.40;16.27;;;13.80;99.90;;;;;;5005398;28;114034;-67
2022/03/01 00:17:23;;;;;;;35.10;17.83;;;13.80;99.90;;;;;;5000568;28;112647;-66
2022/03/01 00:19:49;;;;;;;30.35;17.17;;;13.80;99.90;;;;;;4986631;28;112486;-67
2022/03/01 00:22:15;;;;;;;29.92;16.13;;;13.80;99.90;;;;;;4986632;28;112775;-67
2022/03/01 00:24:41;;;;;;;31.98;14.57;;;13.80;99.90;;;;;;4986476;28;113399;-67
2022/03/01 00:27:07;;;;;;;28.65;14.40;;;13.80;99.90;;;;;;4986597;28;112470;-67
2022/03/01 00:29:33;;;;;;;34.40;14.90;;;13.80;99.90;;;;;;4987278;28;112652;-67
2022/03/01 00:31:59;;;;;;;33.20;15.82;;;13.80;99.90;;;;;;4987918;28;112364;-67
2022/03/01 00:34:25;;;;;;;27.23;14.32;;;13.80;99.90;;;;;;5004367;28;114324;-66
2022/03/01 00:36:51;;;;;;;34.78;15.23;;;13.80;99.90;;;;;;5004333;28;114471;-67
2022/03/01 00:39:17;;;;;;;25.50;14.00;;;13.80;99.90;;;;;;5004894;28;112550;-67
2022/03/01 00:41:43;;;;;;;23.77;15.25;;;13.70;99.90;;;;;;5005821;28;112487;-66
2022/03/01 00:44:09;;;;;;;31.77;14.98;;;13.70;99.90;;;;;;5004539;28;114216;-67
2022/03/01 00:46:34;;;;;;;26.67;14.65;;;13.70;99.90;;;;;;5005664;28;112557;-67
2022/03/01 00:49:01;;;;;;;39.97;14.45;;;13.80;99.90;;;;;;5006445;28;112609;-67
2022/03/01 00:51:27;;;;;;;27.08;13.25;;;13.80;99.90;;;;;;5007183;28;112523;-66
2022/03/01 00:53:54;;;;;;;23.05;12.65;;;13.80;99.90;;;;;;5003968;28;114256;-66
2022/03/01 00:56:19;;;;;;;24.58;14.00;;;13.70;99.90;;;;;;5006835;28;112623;-66
2022/03/01 00:58:45;;;;;;;28.75;14.05;;;13.70;99.90;;;;;;5005765;28;112602;-67
2022/03/01 01:01:11;;;;;;;30.17;15.73;;;13.80;99.90;;;;;;5006975;28;112993;-66
2022/03/01 01:03:37;;;;;;;26.30;15.65;;;13.80;99.90;;;;;;4995548;28;113368;-66
2022/03/01 01:06:04;;;;;;;34.65;17.27;;;13.70;99.90;;;;;;4986214;28;113398;-66
2022/03/01 01:08:30;;;;;;;30.90;16.83;;;13.70;99.90;;;;;;4992008;28;113434;-66
2022/03/01 01:10:55;;;;;;;39.10;17.95;;;13.70;99.90;;;;;;5005715;28;112588;-65
2022/03/01 01:13:22;;;;;;;41.17;17.73;;;13.70;99.90;;;;;;5004453;28;114136;-65
2022/03/01 01:15:48;;;;;;;41.28;18.65;;;13.80;99.90;;;;;;5006658;28;113005;-66
2022/03/01 01:18:13;;;;;;;33.80;18.23;;;13.70;99.90;;;;;;5005614;28;113832;-66
2022/03/01 01:20:39;;;;;;;39.42;19.35;;;13.70;99.90;;;;;;5005906;28;112263;-66
2022/03/01 01:23:05;;;;;;;31.95;16.55;;;13.80;99.90;;;;;;5004980;28;113774;-66
2022/03/01 01:25:32;;;;;;;42.35;20.70;;;13.80;99.90;;;;;;5004054;28;113905;-66
2022/03/01 01:27:59;;;;;;;30.92;18.40;;;13.80;99.90;;;;;;5006195;28;112896;-65
2022/03/01 01:30:28;;;;;;;32.60;18.73;;;13.80;99.90;;;;;;5005490;28;112691;-66
2022/03/01 01:32:54;;;;;;;43.65;17.92;;;13.80;99.90;;;;;;5005756;28;113044;-66
2022/03/01 01:35:23;;;;;;;32.03;16.90;;;13.80;99.90;;;;;;5004847;28;113332;-66
2022/03/01 01:37:50;;;;;;;32.40;17.15;;;13.80;99.90;;;;;;5005227;28;112419;-65
2022/03/01 01:40:18;;;;;;;31.38;16.33;;;13.70;99.90;;;;;;5005371;28;112943;-66
2022/03/01 01:42:45;;;;;;;29.20;17.10;;;13.70;99.90;;;;;;5005222;28;114771;-65
2022/03/01 01:45:12;;;;;;;28.60;15.50;;;13.70;99.90;;;;;;5005027;28;112481;-66
2022/03/01 01:47:38;;;;;;;36.78;16.25;;;13.70;99.90;;;;;;5003747;28;112535;-67
2022/03/01 01:50:06;;;;;;;30.60;16.45;;;13.70;99.90;;;;;;5005013;28;112471;-65
2022/03/01 01:52:32;;;;;;;30.55;16.98;;;13.60;99.90;;;;;;5004849;28;113017;-65
2022/03/01 01:54:58;;;;;;;27.75;16.33;;;13.60;99.90;;;;;;5004512;28;113114;-65
2022/03/01 01:57:25;;;;;;;27.90;15.85;;;13.50;99.90;;;;;;5006125;28;112701;-65
2022/03/01 01:59:53;;;;;;;38.20;20.38;;;13.50;99.90;;;;;;5004385;28;112438;-65
2022/03/01 02:02:21;;;;;;;36.40;17.20;;;13.50;99.90;;;;;;5005185;28;113570;-66
2022/03/01 02:04:47;;;;;;;25.05;13.57;;;13.40;99.90;;;;;;5004685;28;113629;-66
2022/03/01 02:07:13;;;;;;;22.27;13.57;;;13.40;99.90;;;;;;5006079;28;112399;-65
2022/03/01 02:09:39;;;;;;;27.63;13.57;;;13.40;99.90;;;;;;5005340;28;112437;-66
2022/03/01 02:12:06;;;;;;;32.60;14.48;;;13.30;99.90;;;;;;5004990;28;115445;-66
2022/03/01 02:14:37;;;;;;;26.58;15.40;;;13.30;99.90;;;;;;5004508;28;112629;-66
2022/03/01 02:17:08;;;;;;;28.45;15.70;;;13.30;99.90;;;;;;5005721;28;112615;-66
2022/03/01 02:19:34;;;;;;;29.08;14.50;;;13.20;99.90;;;;;;5004511;28;112473;-65
2022/03/01 02:22:00;;;;;;;29.98;13.13;;;13.20;99.90;;;;;;5004367;28;113663;-66
2022/03/01 02:24:29;;;;;;;27.00;13.48;;;13.20;99.90;;;;;;5004476;28;112895;-66
2022/03/01 02:26:58;;;;;;;24.83;12.13;;;13.20;99.90;;;;;;5005043;28;114010;-67
2022/03/01 02:29:28;;;;;;;21.50;11.07;;;13.20;99.90;;;;;;5004912;28;112927;-68
2022/03/01 02:31:54;;;;;;;;;;;13.20;99.90;;;;;;5004438;28;114095;-66
2022/03/01 02:34:20;;;;;;;22.75;12.98;;;13.20;99.90;;;;;;5006116;28;112580;-66
2022/03/01 02:36:46;;;;;;;25.27;12.27;;;13.20;99.90;;;;;;5005921;28;112666;-66
2022/03/01 02:39:13;;;;;;;26.35;13.38;;;13.20;99.90;;;;;;5004083;28;112459;-65
2022/03/01 02:41:41;;;;;;;21.77;14.13;;;13.20;99.90;;;;;;5004798;28;114262;-66
2022/03/01 02:44:07;;;;;;;20.13;12.68;;;13.30;99.90;;;;;;5003564;28;112864;-65
2022/03/01 02:46:34;;;;;;;21.33;12.02;;;13.30;99.90;;;;;;5003864;28;112610;-66
2022/03/01 02:49:00;;;;;;;26.88;12.70;;;13.30;99.90;;;;;;5005314;28;113653;-66
2022/03/01 02:51:26;;;;;;;26.80;13.60;;;13.20;99.90;;;;;;5003531;28;114166;-67
2022/03/01 02:53:52;;;;;;;21.77;11.77;;;13.30;99.90;;;;;;5004489;28;112628;-65
2022/03/01 02:56:18;;;;;;;23.95;13.15;;;13.30;99.90;;;;;;5004303;28;112356;-65
2022/03/01 02:58:44;;;;;;;20.52;11.73;;;13.20;99.90;;;;;;5003771;28;113422;-65
2022/03/01 03:01:10;;;;;;;34.13;15.18;;;13.30;99.90;;;;;;5003017;28;113456;-67
2022/03/01 03:03:36;;;;;;;33.97;15.05;;;13.20;99.90;;;;;;5004187;28;112689;-68
2022/03/01 03:06:04;;;;;;;21.60;13.73;;;13.20;99.90;;;;;;5003797;28;112445;-67
2022/03/01 03:08:31;;;;;;;29.98;13.95;;;13.10;99.90;;;;;;5004768;28;112975;-67
2022/03/01 03:10:57;;;;;;;38.13;15.52;;;13.10;99.90;;;;;;5003776;28;114013;-66
2022/03/01 03:13:24;;;;;;;25.50;14.32;;;13.00;99.90;;;;;;4985969;28;116246;-65
2022/03/01 03:15:50;;;;;;;31.23;14.65;;;13.00;99.90;;;;;;5003837;28;112379;-67
2022/03/01 03:18:17;;;;;;;33.47;13.90;;;13.00;99.90;;;;;;5004702;28;112432;-65
2022/03/01 03:20:43;;;;;;;35.72;14.65;;;13.00;99.90;;;;;;5003424;28;115097;-67
2022/03/01 03:23:09;;;;;;;45.70;14.90;;;13.00;99.90;;;;;;5004610;28;112443;-66
2022/03/01 03:25:35;;;;;;;38.33;14.60;;;13.00;99.90;;;;;;5004281;28;113109;-65
2022/03/01 03:28:01;;;;;;;36.10;14.10;;;13.00;99.90;;;;;;5004726;28;112445;-65
2022/03/01 03:30:27;;;;;;;36.88;15.18;;;13.00;99.90;;;;;;5002936;28;115171;-67
2022/03/01 03:32:53;;;;;;;40.42;15.45;;;13.00;99.90;;;;;;5003828;28;113580;-67
2022/03/01 03:35:19;;;;;;;30.27;14.23;;;13.00;99.90;;;;;;5002327;28;113626;-65
2022/03/01 03:37:45;;;;;;;35.17;15.15;;;13.00;99.90;;;;;;5003675;28;112620;-65
2022/03/01 03:40:11;;;;;;;38.05;14.23;;;13.00;99.90;;;;;;5001505;28;115842;-66
2022/03/01 03:42:39;;;;;;;39.20;14.93;;;13.00;99.90;;;;;;5003435;28;112946;-65
2022/03/01 03:45:07;;;;;;;35.47;14.75;;;13.00;99.90;;;;;;5003638;28;112759;-66
2022/03/01 03:47:34;;;;;;;34.20;15.27;;;13.10;99.90;;;;;;5004513;28;112361;-67
2022/03/01 03:49:59;;;;;;;46.50;16.13;;;13.00;99.90;;;;;;5003441;28;114599;-66
2022/03/01 03:52:25;;;;;;;33.95;13.45;;;13.10;99.90;;;;;;5004171;28;112578;-67
2022/03/01 03:54:54;;;;;;;44.63;14.15;;;13.10;99.90;;;;;;5003349;28;112600;-66
2022/03/01 03:57:20;;;;;;;28.80;13.15;;;13.20;99.90;;;;;;5003518;28;113978;-66
2022/03/01 03:59:45;;;;;;;32.65;14.57;;;13.20;99.90;;;;;;5003197;28;113538;-65
2022/03/01 04:02:11;;;;;;;24.38;11.88;;;13.20;99.90;;;;;;5003117;28;112447;-66
2022/03/01 04:04:37;;;;;;;30.08;12.48;;;13.30;99.90;;;;;;5004471;28;112585;-65
2022/03/01 04:07:03;;;;;;;25.50;12.68;;;13.30;99.90;;;;;;5003214;28;112385;-65
2022/03/01 04:09:29;;;;;;;22.30;12.93;;;13.30;99.90;;;;;;5002148;28;114580;-65
2022/03/01 04:11:55;;;;;;;25.67;12.43;;;13.30;99.90;;;;;;5002832;28;113557;-67
2022/03/01 04:14:21;;;;;;;32.20;13.75;;;13.30;99.90;;;;;;5002988;28;112412;-66
2022/03/01 04:16:47;;;;;;;25.10;12.57;;;13.30;99.90;;;;;;5001946;28;112327;-67
2022/03/01 04:19:13;;;;;;;25.25;12.85;;;13.30;99.90;;;;;;4994297;28;113275;-68
2022/03/01 04:21:39;;;;;;;27.33;12.48;;;13.40;99.90;;;;;;4983387;28;113666;-66
2022/03/01 04:24:06;;;;;;;24.80;13.20;;;13.30;99.90;;;;;;4987728;28;112543;-66
2022/03/01 04:26:32;;;;;;;29.75;13.55;;;13.40;99.90;;;;;;5002437;28;112502;-67
2022/03/01 04:28:58;;;;;;;28.80;13.10;;;13.40;99.90;;;;;;5002469;28;113041;-64
2022/03/01 04:31:25;;;;;;;20.42;12.45;;;13.40;99.90;;;;;;5002483;28;113570;-66
2022/03/01 04:33:51;;;;;;;24.20;13.10;;;13.40;99.90;;;;;;5002634;28;112559;-65
2022/03/01 04:36:17;;;;;;;26.40;12.55;;;13.40;99.90;;;;;;5004408;28;112404;-66
2022/03/01 04:38:43;;;;;;;21.73;13.73;;;13.40;99.90;;;;;;5003293;28;112915;-66
2022/03/01 04:41:09;;;;;;;29.60;15.88;;;13.30;99.90;;;;;;5002718;28;112499;-66
2022/03/01 04:43:36;;;;;;;24.67;13.38;;;13.30;99.90;;;;;;5003545;28;112448;-66
2022/03/01 04:46:03;;;;;;;25.80;13.48;;;13.30;99.90;;;;;;5003166;28;112360;-65
2022/03/01 04:48:29;;;;;;;25.77;14.18;;;13.30;99.90;;;;;;5002890;28;113570;-65
2022/03/01 04:50:56;;;;;;;27.20;14.60;;;13.30;99.90;;;;;;5000416;28;116270;-65
2022/03/01 04:53:22;;;;;;;30.05;14.30;;;13.30;99.90;;;;;;5003394;28;112466;-66
2022/03/01 04:55:49;;;;;;;23.70;13.57;;;13.30;99.90;;;;;;5006492;28;112703;-66
2022/03/01 04:58:15;;;;;;;28.45;14.13;;;13.30;99.90;;;;;;5006692;28;113380;-65
2022/03/01 05:00:42;;;;;;;32.15;15.20;;;13.30;99.90;;;;;;5005127;28;112603;-66
2022/03/01 05:03:08;;;;;;;31.42;14.35;;;13.20;99.90;;;;;;5005791;28;112559;-66
2022/03/01 05:05:34;;;;;;;30.75;16.05;;;13.20;99.90;;;;;;5003988;28;113600;-65
2022/03/01 05:07:59;;;;;;;29.00;15.00;;;13.20;99.90;;;;;;5005863;28;113036;-66
2022/03/01 05:10:25;;;;;;;30.13;14.65;;;13.20;99.90;;;;;;5005218;28;112783;-67
2022/03/01 05:12:56;;;;;;;28.75;14.65;;;13.20;99.90;;;;;;5007344;28;112470;-65
2022/03/01 05:15:24;;;;;;;18.83;12.30;;;13.20;99.90;;;;;;5006293;28;112813;-66
2022/03/01 05:17:50;;;;;;;28.92;14.05;;;13.20;99.90;;;;;;5004909;28;113473;-66
2022/03/01 05:20:18;;;;;;;32.47;14.13;;;13.20;99.90;;;;;;5003164;28;112546;-67
2022/03/01 05:22:44;;;;;;;27.75;12.93;;;13.20;99.90;;;;;;5004320;28;112471;-67
2022/03/01 05:25:12;;;;;;;23.83;12.50;;;13.20;99.90;;;;;;5004907;28;113128;-67
2022/03/01 05:27:40;;;;;;;21.15;12.60;;;13.20;99.90;;;;;;5004596;28;113226;-67
2022/03/01 05:30:09;;;;;;;25.92;13.00;;;13.20;99.90;;;;;;5006477;28;112758;-67
2022/03/01 05:32:36;;;;;;;22.98;12.27;;;13.20;99.90;;;;;;5004319;28;112760;-66
2022/03/01 05:35:02;;;;;;;29.00;14.10;;;13.20;99.90;;;;;;5006808;28;112553;-66
2022/03/01 05:37:29;;;;;;;26.02;13.13;;;13.20;99.90;;;;;;5003787;28;113644;-67
2022/03/01 05:39:55;;;;;;;21.02;12.77;;;13.20;99.90;;;;;;5005584;28;112875;-66
2022/03/01 05:42:20;;;;;;;25.50;12.07;;;13.20;99.90;;;;;;5005527;28;112752;-66
2022/03/01 05:44:46;;;;;;;28.20;16.02;;;13.20;99.90;;;;;;5005785;28;112961;-66
2022/03/01 05:47:12;;;;;;;31.45;15.77;;;13.20;99.90;;;;;;5003352;28;116550;-65
2022/03/01 05:49:38;;;;;;;25.50;15.55;;;13.10;99.90;;;;;;5003752;28;115687;-66
2022/03/01 05:52:05;;;;;;;32.42;17.05;;;13.10;99.90;;;;;;5006037;28;112523;-66
2022/03/01 05:54:31;;;;;;;33.72;16.42;;;13.10;99.90;;;;;;4996160;22;112800;-69
2022/03/01 05:56:57;;;;;;;36.30;17.48;;;13.10;99.90;;;;;;4984996;28;114673;-68
2022/03/01 05:59:24;;;;;;;35.75;18.35;;;13.10;99.90;;;;;;4984270;28;112606;-65
2022/03/01 06:01:49;;;;;;;32.65;17.23;;;13.10;99.90;;;;;;4985749;28;112510;-64
2022/03/01 06:04:15;;;;;;;36.38;17.92;;;13.10;99.90;;;;;;4985217;28;112634;-65
2022/03/01 06:06:41;;;;;;;39.80;17.83;;;13.10;99.90;;;;;;4983022;28;116039;-65
2022/03/01 06:09:07;;;;;;;35.42;18.00;;;13.10;99.90;;;;;;4983665;28;112635;-67
2022/03/01 06:11:32;;;;;;;33.60;17.63;;;13.10;99.90;;;;;;4985191;28;112452;-64
2022/03/01 06:13:58;;;;;;;35.08;17.42;;;13.10;99.90;;;;;;4984237;28;112461;-63
2022/03/01 06:16:24;;;;;;;32.63;17.80;;;13.10;99.90;;;;;;4984034;28;113158;-64
2022/03/01 06:18:50;;;;;;;38.65;19.70;;;13.00;99.90;;;;;;4983772;28;112430;-63
2022/03/01 06:21:16;;;;;;;30.63;18.40;;;13.10;99.90;;;;;;4983901;28;112564;-63
2022/03/01 06:23:42;;;;;;;32.42;18.42;;;13.00;99.90;;;;;;4985316;28;112540;-66
2022/03/01 06:26:08;;;;;;;35.13;19.15;;;13.00;99.90;;;;;;4982608;28;113119;-64
2022/03/01 06:28:35;;;;;;;38.50;19.48;;;13.00;99.90;;;;;;4983529;28;113744;-66
2022/03/01 06:31:00;;;;;;;33.22;17.33;;;12.90;99.90;;;;;;4984383;28;112420;-68
2022/03/01 06:33:26;;;;;;;33.05;17.23;;;12.90;99.90;;;;;;4984895;28;112604;-65
2022/03/01 06:35:52;;;;;;;28.75;16.45;;;12.90;99.90;;;;;;4983535;28;113836;-66
2022/03/01 06:38:18;;;;;;;37.78;17.20;;;12.90;99.90;;;;;;4982357;28;113166;-66
2022/03/01 06:40:44;;;;;;;36.42;17.08;;;12.90;99.90;;;;;;4984790;28;112461;-65
2022/03/01 06:43:10;;;;;;;31.88;16.52;;;12.90;99.90;;;;;;4984496;28;112453;-65
2022/03/01 06:45:36;;;;;;;34.13;17.20;;;12.80;99.90;;;;;;4983892;28;114006;-66
2022/03/01 06:48:02;;;;;;;38.80;16.95;;;12.80;99.90;;;;;;4982336;28;112977;-67
2022/03/01 06:50:28;;;;;;;29.38;15.75;;;12.90;99.90;;;;;;4984596;28;112405;-65
2022/03/01 06:52:54;;;;;;;36.08;18.63;;;12.90;99.90;;;;;;4984849;28;112360;-66
2022/03/01 06:55:21;;;;;;;33.72;16.27;;;12.80;99.90;;;;;;4983680;28;114294;-63
2022/03/01 06:57:48;;;;;;;36.33;18.65;;;12.80;99.90;;;;;;4984702;28;112955;-64
2022/03/01 07:00:15;;;;;;;29.75;15.45;;;12.80;99.90;;;;;;4983038;28;112926;-64
2022/03/01 07:02:41;;;;;;;35.38;16.10;;;12.80;99.90;;;;;;4983477;28;112908;-66
2022/03/01 07:05:10;;;;;;;37.60;18.13;;;12.80;99.90;;;;;;4983672;28;113473;-64
2022/03/01 07:07:37;;;;;;;40.72;18.35;;;12.90;99.90;;;;;;4982761;28;114670;-66
2022/03/01 07:10:04;;;;;;;35.53;16.85;;;12.90;99.90;;;;;;4983938;28;112527;-66
2022/03/01 07:12:30;;;;;;;24.30;15.73;;;12.90;99.90;;;;;;4984795;28;112540;-66
2022/03/01 07:14:56;;;;;;;33.13;16.17;;;12.90;99.90;;;;;;4983520;28;113487;-66
2022/03/01 07:17:22;;;;;;;33.63;15.98;;;13.00;99.90;;;;;;4982557;28;114467;-69
2022/03/01 07:19:49;;;;;;;33.95;15.48;;;13.00;99.90;;;;;;4981348;28;112496;-65
2022/03/01 07:22:16;;;;;;;29.20;15.35;;;13.00;99.90;;;;;;4979468;28;112869;-66
2022/03/01 07:24:42;;;;;;;34.47;15.65;;;13.00;99.90;;;;;;4982750;28;114204;-66
2022/03/01 07:27:08;;;;;;;37.33;16.92;;;13.00;99.90;;;;;;4977499;28;116313;-65
2022/03/01 07:29:34;;;;;;;36.92;16.33;;;13.10;99.90;;;;;;4970488;28;112750;-65
2022/03/01 07:32:00;;;;;;;48.25;17.70;;;13.10;99.90;;;;;;4980969;28;112554;-66
2022/03/01 07:34:26;;;;;;;45.08;17.13;;;13.20;99.90;;;;;;4963494;28;113617;-65
2022/03/01 07:36:52;;;;;;;36.90;17.00;;;13.20;99.90;;;;;;4963081;28;112478;-65
2022/03/01 07:39:18;;;;;;;51.22;18.85;;;13.20;99.90;;;;;;4964341;28;112402;-65
2022/03/01 07:41:44;;;;;;;57.60;19.75;;;13.30;99.90;;;;;;4964412;28;112925;-69
2022/03/01 07:44:10;;;;;;;52.95;19.85;;;13.30;99.90;;;;;;4963326;28;114600;-66
2022/03/01 07:46:36;;;;;;;57.13;20.20;;;13.40;99.90;;;;;;4968998;28;112762;-68
2022/03/01 07:49:12;;;;;;;56.47;20.48;;;13.40;99.90;;;;;;4978260;28;112722;-66
2022/03/01 07:51:38;;;;;;;46.03;17.90;;;13.40;99.90;;;;;;4984033;28;113381;-66
2022/03/01 07:54:04;;;;;;;48.55;20.98;;;13.50;99.90;;;;;;4983666;22;115331;-67
2022/03/01 07:56:30;;;;;;;48.00;17.98;;;13.50;99.90;;;;;;4982496;28;112882;-65
2022/03/01 07:58:56;;;;;;;37.78;16.30;;;13.60;99.90;;;;;;4983814;28;112567;-67
2022/03/01 08:01:22;;;;;;;42.72;19.02;;;13.70;99.90;;;;;;4984416;28;112560;-66
2022/03/01 08:03:49;;;;;;;47.78;16.80;;;13.70;99.90;;;;;;4983354;28;113123;-69
2022/03/01 08:06:15;;;;;;;45.13;18.20;;;13.80;99.90;;;;;;4982653;28;112866;-66
2022/03/01 08:08:41;;;;;;;35.05;16.70;;;13.90;99.90;;;;;;4983156;28;112654;-66
2022/03/01 08:11:07;;;;;;;46.42;18.20;;;14.00;99.90;;;;;;4983399;28;112770;-68
2022/03/01 08:13:34;;;;;;;48.72;18.90;;;14.00;99.90;;;;;;4982825;28;112986;-67
2022/03/01 08:16:00;;;;;;;31.90;16.05;;;14.10;99.90;;;;;;4982349;28;113391;-67
2022/03/01 08:18:26;;;;;;;39.42;18.27;;;14.10;99.90;;;;;;4982857;28;112407;-63
2022/03/01 08:20:52;;;;;;;35.30;16.23;;;14.20;99.90;;;;;;4981726;28;114276;-66
2022/03/01 08:23:18;;;;;;;34.47;15.93;;;14.30;99.90;;;;;;4980509;28;115821;-66
2022/03/01 08:25:44;;;;;;;38.42;16.15;;;14.30;99.90;;;;;;4983026;28;113070;-64
2022/03/01 08:28:10;;;;;;;37.97;17.15;;;14.40;99.90;;;;;;4983551;28;112384;-66
2022/03/01 08:30:36;;;;;;;39.50;18.13;;;14.40;99.90;;;;;;4986305;28;112865;-67
2022/03/01 08:33:03;;;;;;;45.47;18.42;;;14.60;99.90;;;;;;4986356;28;113353;-66
2022/03/01 08:35:32;;;;;;;37.75;17.60;;;14.60;99.90;;;;;;4985768;28;113815;-65
2022/03/01 08:38:02;;;;;;;38.15;17.25;;;14.60;99.90;;;;;;4986487;28;112619;-65
2022/03/01 08:40:30;;;;;;;40.58;18.63;;;14.70;99.90;;;;;;4985618;28;112571;-65
2022/03/01 08:42:56;;;;;;;46.58;18.90;;;14.80;99.90;;;;;;4985193;28;114209;-64
2022/03/01 08:45:21;;;;;;;42.22;18.00;;;14.80;99.90;;;;;;4986062;28;113315;-64
2022/03/01 08:47:47;;;;;;;36.70;18.95;;;14.90;99.90;;;;;;4986817;28;112710;-66
2022/03/01 08:50:14;;;;;;;36.20;17.92;;;14.90;99.90;;;;;;4985211;28;113547;-63
2022/03/01 08:52:39;;;;;;;48.35;17.63;;;14.90;99.90;;;;;;4986058;28;112942;-66
2022/03/01 08:55:07;;;;;;;40.08;17.45;;;14.90;99.90;;;;;;4985031;28;112936;-64
2022/03/01 08:57:33;;;;;;;32.03;17.10;;;15.00;99.90;;;;;;4979567;28;112792;-66
2022/03/01 08:59:59;;;;;;;32.30;17.08;;;14.90;99.90;;;;;;4966496;28;112424;-67
2022/03/01 09:02:25;;;;;;;33.00;16.95;;;15.00;99.90;;;;;;4965903;28;112966;-66
2022/03/01 09:04:51;;;;;;;33.05;16.98;;;15.00;99.90;;;;;;4964353;28;112895;-66
2022/03/01 09:07:16;;;;;;;34.20;17.63;;;15.00;99.90;;;;;;4967070;28;112215;-66
2022/03/01 09:09:43;;;;;;;41.47;16.60;;;15.10;99.90;;;;;;4969641;28;113819;-65
2022/03/01 09:12:09;;;;;;;41.95;17.30;;;15.10;99.90;;;;;;4984946;28;113683;-67
2022/03/01 09:14:35;;;;;;;27.33;16.20;;;15.20;99.90;;;;;;4986047;28;112801;-66
2022/03/01 09:17:01;;;;;;;31.67;16.70;;;15.20;99.90;;;;;;4986693;28;112674;-67
2022/03/01 09:19:27;;;;;;;28.55;16.80;;;15.20;99.90;;;;;;4986931;28;112543;-67
2022/03/01 09:21:56;;;;;;;35.35;17.00;;;15.20;99.90;;;;;;4985088;28;113505;-68
2022/03/01 09:24:22;;;;;;;37.05;16.15;;;15.30;99.90;;;;;;4985635;28;114340;-64
2022/03/01 09:26:48;;;;;;;37.78;18.88;;;15.30;99.90;;;;;;4984116;28;112585;-65
2022/03/01 09:29:14;;;;;;;30.48;15.35;;;15.30;99.90;;;;;;4985988;28;112801;-66
2022/03/01 09:31:40;;;;;;;34.42;16.95;;;15.20;99.90;;;;;;4984196;28;114548;-58
2022/03/01 09:34:06;;;;;;;37.80;16.67;;;15.30;99.90;;;;;;4984945;28;113121;-64
2022/03/01 09:36:33;;;;;;;41.47;18.13;;;15.30;99.90;;;;;;4986069;28;112649;-65
2022/03/01 09:38:58;;;;;;;28.52;16.60;;;15.30;99.90;;;;;;4985744;28;113922;-64
2022/03/01 09:41:25;;;;;;;44.30;18.48;;;15.30;99.90;;;;;;4984214;28;114286;-64
2022/03/01 09:43:54;;;;;;;39.35;18.02;;;15.40;99.90;;;;;;4966661;28;113888;-64
2022/03/01 09:46:20;;;;;;;30.27;16.98;;;15.40;99.90;;;;;;4985717;28;112401;-65
2022/03/01 09:48:46;;;;;;;36.00;18.42;;;15.40;99.90;;;;;;4985254;28;112858;-64
2022/03/01 09:51:12;;;;;;;40.00;17.48;;;15.50;99.90;;;;;;4983468;28;116027;-65
2022/03/01 09:53:41;;;;;;;33.65;17.80;;;15.60;99.90;;;;;;4985072;28;112592;-63
2022/03/01 09:56:09;;;;;;;43.42;18.10;;;15.60;99.90;;;;;;4984510;28;112581;-65
2022/03/01 09:58:36;;;;;;;36.35;18.98;;;15.70;99.90;;;;;;4984547;28;112613;-63
2022/03/01 10:01:02;;;;;;;38.53;19.02;;;15.80;99.90;;;;;;4984590;28;114687;-65
2022/03/01 10:03:28;;;;;;;47.33;20.27;;;15.90;99.90;;;;;;4984611;28;113051;-67
2022/03/01 10:06:08;;;;;;;45.28;20.90;;;15.90;99.90;;;;;;4984125;28;112548;-65
2022/03/01 10:08:33;;;;;;;34.38;19.77;;;16.00;99.90;;;;;;4965145;28;112389;-64
2022/03/01 10:10:59;;;;;;;35.80;20.13;;;16.10;99.90;;;;;;4965640;28;114317;-64
2022/03/01 10:13:30;;;;;;;69.07;34.95;;;16.20;99.90;;;;;;4984327;28;112687;-66
2022/03/01 10:16:08;;;;;;;63.45;32.10;;;16.20;99.90;;;;;;4984437;28;112528;-66
2022/03/01 10:18:36;;;;;;;111.07;57.10;;;16.30;99.90;;;;;;4985644;28;112442;-64
2022/03/01 10:21:09;;;;;;;89.00;46.45;;;16.40;99.90;;;;;;4984719;28;113139;-64
2022/03/01 10:23:41;;;;;;;67.68;36.33;;;16.50;99.90;;;;;;4984390;28;113484;-63
2022/03/01 10:26:21;;;;;;;41.72;20.95;;;16.60;99.90;;;;;;4984904;28;112678;-68
2022/03/01 10:28:49;;;;;;;38.33;20.48;;;16.80;99.90;;;;;;4982435;28;112754;-62
2022/03/01 10:31:27;;;;;;;39.90;20.92;;;16.90;99.90;;;;;;4996032;22;114446;-70
2022/03/01 10:34:13;;;;;;;30.67;19.30;;;17.00;99.90;;;;;;4984051;28;112980;-65
2022/03/01 10:36:47;;;;;;;35.75;20.05;;;17.10;99.90;;;;;;4988013;28;112574;-62
2022/03/01 10:39:19;;;;;;;41.15;19.90;;;17.20;99.90;;;;;;5003738;28;112702;-67
2022/03/01 10:41:49;;;;;;;35.70;21.27;;;17.30;99.90;;;;;;5019660;22;113970;-70
2022/03/01 10:44:29;;;;;;;40.80;23.00;;;17.50;99.90;;;;;;4996904;28;113008;-64
2022/03/01 10:46:56;;;;;;;;;;;17.60;99.90;;;;;;5000955;28;112712;-65
2022/03/01 10:49:25;;;;;;;32.60;18.88;;;17.80;99.90;;;;;;5002125;28;112593;-64
2022/03/01 10:52:01;;;;;;;47.75;27.17;;;17.90;99.90;;;;;;5003110;28;113273;-65
2022/03/01 10:54:42;;;;;;;44.83;26.80;;;17.90;99.90;;;;;;5004185;28;113258;-67
2022/03/01 10:57:21;;;;;;;28.35;17.52;;;18.00;99.90;;;;;;5003563;28;112496;-65
2022/03/01 10:59:48;;;;;;;35.00;21.55;;;18.00;99.90;;;;;;5003214;28;112549;-63
2022/03/01 11:02:16;;;;;;;33.97;16.92;;;18.10;99.90;;;;;;4983654;28;113055;-64
2022/03/01 11:04:44;;;;;;;33.55;18.05;;;18.20;99.90;;;;;;4982912;28;114035;-65
2022/03/01 11:07:11;;;;;;;36.75;18.75;;;18.30;99.90;;;;;;4984983;28;112651;-65
2022/03/01 11:09:38;;;;;;;35.58;19.25;;;18.40;99.90;;;;;;4982426;28;112712;-63
2022/03/01 11:12:07;;;;;;;33.63;18.95;;;18.50;99.90;;;;;;5001650;28;113529;-65
2022/03/01 11:14:47;;;;;;;28.67;18.08;;;18.60;99.90;;;;;;5002075;28;112705;-64
2022/03/01 11:17:15;;;;;;;;;;;18.60;99.90;;;;;;5004722;28;112256;-63
2022/03/01 11:19:59;;;;;;;38.30;20.00;;;18.60;99.90;;;;;;5004982;28;113580;-65
2022/03/01 11:22:30;;;;;;;38.00;19.23;;;18.70;99.90;;;;;;4998458;28;115919;-64
2022/03/01 11:24:56;;;;;;;31.95;18.00;;;18.70;99.90;;;;;;4983505;28;112509;-65
2022/03/01 11:27:25;;;;;;;27.35;17.33;;;18.80;99.90;;;;;;4984261;28;112636;-65
2022/03/01 11:29:52;;;;;;;33.28;14.35;;;18.80;99.90;;;;;;4984391;28;112515;-66
2022/03/01 11:32:21;;;;;;;27.77;13.02;;;18.80;99.90;;;;;;4981955;28;116878;-59
2022/03/01 11:34:47;;;;;;;;;;;18.80;99.90;;;;;;4983495;28;114001;-62
2022/03/01 11:37:16;;;;;;;27.95;14.45;;;18.70;99.90;;;;;;4990607;28;112856;-62
2022/03/01 11:39:43;;;;;;;32.90;13.45;;;18.60;99.90;;;;;;4984026;28;112532;-63
2022/03/01 11:42:18;;;;;;;23.42;12.13;;;18.70;99.90;;;;;;4982826;28;112942;-61
2022/03/01 11:44:52;;;;;;;29.30;12.57;;;18.60;99.90;;;;;;4983146;28;112771;-63
2022/03/01 11:47:29;;;;;;;27.63;12.80;;;18.50;99.90;;;;;;4983774;28;112435;-62
2022/03/01 11:49:56;;;;;;;35.80;14.50;;;18.50;99.90;;;;;;4983731;28;112925;-62
2022/03/01 11:52:25;;;;;;;33.22;13.95;;;18.50;99.90;;;;;;4982436;28;114046;-57
2022/03/01 11:54:54;;;;;;;31.17;14.18;;;18.50;99.90;;;;;;4982908;28;112909;-62
2022/03/01 11:57:25;;;;;;;26.20;12.88;;;18.60;99.90;;;;;;4983571;28;112557;-61
2022/03/01 11:59:54;;;;;;;36.80;17.08;;;18.60;99.90;;;;;;4983418;28;112685;-61
2022/03/01 12:02:24;;;;;;;29.20;15.00;;;18.70;99.90;;;;;;4982662;28;114576;-63
2022/03/01 12:04:53;;;;;;;34.55;13.60;;;18.80;99.90;;;;;;4986504;28;114114;-62
2022/03/01 12:07:23;;;;;;;53.00;21.13;;;18.90;99.90;;;;;;4986679;28;112293;-64
2022/03/01 12:09:57;;;;;;;57.45;20.10;;;19.00;99.90;;;;;;4994278;28;112702;-60
2022/03/01 12:12:32;;;;;;;59.55;20.25;;;19.00;99.90;;;;;;4986214;28;114116;-64
2022/03/01 12:14:58;;;;;;;66.00;21.63;;;19.00;99.90;;;;;;4985610;28;113570;-62
2022/03/01 12:17:24;;;;;;;84.80;25.13;;;18.90;99.90;;;;;;4987043;28;112587;-63